createdAt,value
2023-02-15T00:00:46.492Z,-1.71
2023-02-15T00:03:12.875Z,-1.72
2023-02-15T00:05:39.309Z,-1.74
2023-02-15T00:08:05.746Z,-1.74
2023-02-15T00:10:32.128Z,-1.69
2023-02-15T00:12:58.602Z,-1.68
2023-02-15T00:15:25.083Z,-1.72
2023-02-15T00:17:51.608Z,-1.77
2023-02-15T00:20:18.071Z,-1.78
2023-02-15T00:22:44.731Z,-1.73
2023-02-15T00:25:11.247Z,-1.76
2023-02-15T00:27:37.653Z,-1.75
2023-02-15T00:30:04.187Z,-1.76
2023-02-15T00:32:30.579Z,-1.77
2023-02-15T00:34:57.274Z,-1.79
2023-02-15T00:37:23.738Z,-1.82
2023-02-15T00:39:50.208Z,-1.87
2023-02-15T00:42:16.609Z,-1.96
2023-02-15T00:44:44.103Z,-2.04
2023-02-15T00:47:10.586Z,-2.12
2023-02-15T00:49:37.043Z,-2.13
2023-02-15T00:52:03.527Z,-2.18
2023-02-15T00:54:29.973Z,-2.20
2023-02-15T00:56:56.459Z,-2.24
2023-02-15T00:59:24.269Z,-2.26
2023-02-15T01:01:50.865Z,-2.25
2023-02-15T01:04:17.641Z,-2.25
2023-02-15T01:06:44.092Z,-2.27
2023-02-15T01:09:10.506Z,-2.30
2023-02-15T01:11:36.904Z,-2.35
2023-02-15T01:14:03.347Z,-2.37
2023-02-15T01:16:30.101Z,-2.38
2023-02-15T01:18:56.891Z,-2.44
2023-02-15T01:21:26.942Z,-2.49
2023-02-15T01:23:54.310Z,-2.53
2023-02-15T01:26:20.852Z,-2.50
2023-02-15T01:28:47.511Z,-2.56
2023-02-15T01:31:16.969Z,-2.59
2023-02-15T01:33:43.725Z,-2.60
2023-02-15T01:36:10.755Z,-2.63
2023-02-15T01:38:37.228Z,-2.65
2023-02-15T01:41:04.093Z,-2.62
2023-02-15T01:43:45.183Z,-2.64
2023-02-15T01:46:15.332Z,-2.68
2023-02-15T01:48:47.743Z,-2.68
2023-02-15T01:51:17.524Z,-2.70
2023-02-15T01:53:52.824Z,-2.72
2023-02-15T01:56:31.140Z,-2.78
2023-02-15T01:59:01.082Z,-2.81
2023-02-15T02:01:28.542Z,-2.82
2023-02-15T02:04:19.136Z,-2.84
2023-02-15T02:06:49.838Z,-2.90
2023-02-15T02:09:16.745Z,-2.92
2023-02-15T02:11:47.445Z,-2.94
2023-02-15T02:14:13.955Z,-2.94
2023-02-15T02:17:06.656Z,-2.96
2023-02-15T02:20:17.337Z,-2.96
2023-02-15T02:23:12.054Z,-2.94
2023-02-15T02:26:01.348Z,-2.98
2023-02-15T02:29:12.796Z,-2.97
2023-02-15T02:31:57.401Z,-2.97
2023-02-15T02:34:33.341Z,-3.00
2023-02-15T02:37:21.817Z,-2.98
2023-02-15T02:40:00.155Z,-3.00
2023-02-15T02:42:30.568Z,-3.06
2023-02-15T02:45:21.203Z,-3.08
2023-02-15T02:47:56.674Z,-3.05
2023-02-15T02:50:26.422Z,-3.18
2023-02-15T02:52:54.988Z,-3.25
2023-02-15T02:55:32.626Z,-3.25
2023-02-15T02:58:04.558Z,-3.23
2023-02-15T03:00:35.707Z,-3.27
2023-02-15T03:03:08.855Z,-3.25
2023-02-15T03:05:41.767Z,-3.30
2023-02-15T03:08:09.874Z,-3.30
2023-02-15T03:10:40.113Z,-3.30
2023-02-15T03:13:07.350Z,-3.28
2023-02-15T03:15:39.602Z,-3.31
2023-02-15T03:18:06.667Z,-3.25
2023-02-15T03:20:38.498Z,-3.22
2023-02-15T03:23:14.906Z,-3.22
2023-02-15T03:25:44.058Z,-3.29
2023-02-15T03:28:18.482Z,-3.39
2023-02-15T03:30:49.646Z,-3.35
2023-02-15T03:33:16.949Z,-3.36
2023-02-15T03:35:54.040Z,-3.44
2023-02-15T03:38:44.586Z,-3.54
2023-02-15T03:41:13.041Z,-3.52
2023-02-15T03:43:45.285Z,-3.49
2023-02-15T03:46:20.701Z,-3.50
2023-02-15T03:48:53.118Z,-3.50
2023-02-15T03:51:24.462Z,-3.50
2023-02-15T03:53:53.262Z,-3.48
2023-02-15T03:56:19.620Z,-3.46
2023-02-15T03:58:46.246Z,-3.53
2023-02-15T04:01:22.183Z,-3.53
2023-02-15T04:04:04.307Z,-3.55
2023-02-15T04:06:30.725Z,-3.53
2023-02-15T04:08:57.360Z,-3.58
2023-02-15T04:11:23.826Z,-3.60
2023-02-15T04:13:50.297Z,-3.59
2023-02-15T04:16:16.719Z,-3.57
2023-02-15T04:18:44.392Z,-3.62
2023-02-15T04:21:10.789Z,-3.64
2023-02-15T04:23:37.474Z,-3.65
2023-02-15T04:26:07.352Z,-3.63
2023-02-15T04:28:33.848Z,-3.65
2023-02-15T04:31:00.537Z,-3.61
2023-02-15T04:33:27.078Z,-3.63
2023-02-15T04:35:53.770Z,-3.60
2023-02-15T04:38:20.192Z,-3.58
2023-02-15T04:40:51.279Z,-3.58
2023-02-15T04:43:17.679Z,-3.57
2023-02-15T04:45:51.359Z,-3.60
2023-02-15T04:48:19.025Z,-3.62
2023-02-15T04:50:45.720Z,-3.70
2023-02-15T04:53:12.686Z,-3.70
2023-02-15T04:55:39.231Z,-3.77
2023-02-15T04:58:05.693Z,-3.77
2023-02-15T05:00:32.464Z,-3.76
2023-02-15T05:02:59.275Z,-3.74
2023-02-15T05:05:25.751Z,-3.74
2023-02-15T05:07:52.264Z,-3.79
2023-02-15T05:10:18.784Z,-3.75
2023-02-15T05:12:45.218Z,-3.73
2023-02-15T05:15:11.743Z,-3.68
2023-02-15T05:17:38.513Z,-3.70
2023-02-15T05:20:05.965Z,-3.76
2023-02-15T05:22:32.722Z,-3.77
2023-02-15T05:24:59.564Z,-3.82
2023-02-15T05:27:26.045Z,-3.88
2023-02-15T05:29:52.571Z,-3.89
2023-02-15T05:32:19.230Z,-3.86
2023-02-15T05:34:47.081Z,-3.84
2023-02-15T05:37:13.558Z,-3.90
2023-02-15T05:39:40.079Z,-3.90
2023-02-15T05:42:06.812Z,-3.96
2023-02-15T05:44:33.165Z,-4.00
2023-02-15T05:46:59.621Z,-4.05
2023-02-15T05:49:26.047Z,-4.04
2023-02-15T05:51:52.402Z,-4.09
2023-02-15T05:54:18.785Z,-4.11
2023-02-15T05:56:45.269Z,-4.13
2023-02-15T05:59:11.623Z,-4.19
2023-02-15T06:01:38.117Z,-4.14
2023-02-15T06:04:04.595Z,-4.20
2023-02-15T06:06:31.310Z,-4.20
2023-02-15T06:08:57.885Z,-4.21
2023-02-15T06:11:26.012Z,-4.23
2023-02-15T06:13:52.476Z,-4.24
2023-02-15T06:16:19.090Z,-4.24
2023-02-15T06:18:45.936Z,-4.29
2023-02-15T06:21:13.472Z,-4.29
2023-02-15T06:23:39.966Z,-4.34
2023-02-15T06:26:09.842Z,-4.35
2023-02-15T06:28:36.437Z,-4.36
2023-02-15T06:31:02.961Z,-4.37
2023-02-15T06:33:29.480Z,-4.35
2023-02-15T06:35:55.945Z,-4.33
2023-02-15T06:38:22.782Z,-4.28
2023-02-15T06:40:50.771Z,-4.43
2023-02-15T06:43:17.336Z,-4.43
2023-02-15T06:45:44.048Z,-4.43
2023-02-15T06:48:10.804Z,-4.48
2023-02-15T06:50:37.219Z,-4.52
2023-02-15T06:53:04.113Z,-4.46
2023-02-15T06:55:31.562Z,-4.49
2023-02-15T06:57:58.137Z,-4.47
2023-02-15T07:00:26.356Z,-4.51
2023-02-15T07:02:56.542Z,-4.44
2023-02-15T07:05:23.887Z,-4.34
2023-02-15T07:07:51.969Z,-4.24
2023-02-15T07:10:20.656Z,-4.25
2023-02-15T07:12:47.255Z,-4.13
2023-02-15T07:15:18.481Z,-4.14
2023-02-15T07:17:45.335Z,-4.09
2023-02-15T07:20:21.270Z,-4.12
2023-02-15T07:22:48.322Z,-4.01
2023-02-15T07:25:15.172Z,-4.02
2023-02-15T07:27:42.261Z,-3.91
2023-02-15T07:30:15.339Z,-4.04
2023-02-15T07:32:42.234Z,-4.05
2023-02-15T07:35:08.853Z,-4.19
2023-02-15T07:37:35.750Z,-4.03
2023-02-15T07:40:02.200Z,-3.92
2023-02-15T07:42:28.841Z,-3.72
2023-02-15T07:44:55.313Z,-3.49
2023-02-15T07:47:21.732Z,-3.24
2023-02-15T07:49:49.305Z,-3.06
2023-02-15T07:52:16.057Z,-2.88
2023-02-15T07:54:42.490Z,-2.72
2023-02-15T07:57:09.214Z,-2.50
2023-02-15T07:59:35.566Z,-2.56
2023-02-15T08:02:02.058Z,-2.44
2023-02-15T08:04:28.554Z,-2.33
2023-02-15T08:06:55.400Z,-2.12
2023-02-15T08:09:22.088Z,-1.84
2023-02-15T08:11:49.271Z,-1.63
2023-02-15T08:14:20.834Z,-1.52
2023-02-15T08:17:01.024Z,-1.26
2023-02-15T08:19:30.931Z,-1.37
2023-02-15T08:22:08.801Z,-1.32
2023-02-15T08:24:38.924Z,-1.06
2023-02-15T08:27:07.446Z,-1.04
2023-02-15T08:29:35.567Z,-0.84
2023-02-15T08:32:05.339Z,-0.52
2023-02-15T08:34:34.468Z,-0.57
2023-02-15T08:37:01.731Z,-0.48
2023-02-15T08:39:28.504Z,-0.30
2023-02-15T08:41:54.940Z,-0.09
2023-02-15T08:44:24.900Z,0.34
2023-02-15T08:46:51.505Z,0.12
2023-02-15T08:49:22.589Z,0.36
2023-02-15T08:51:50.320Z,0.38
2023-02-15T08:54:21.444Z,0.90
2023-02-15T08:56:48.182Z,0.74
2023-02-15T08:59:24.085Z,0.81
2023-02-15T09:01:53.145Z,1.18
2023-02-15T09:04:20.449Z,1.29
2023-02-15T09:06:49.466Z,1.91
2023-02-15T09:09:17.066Z,1.79
2023-02-15T09:11:48.788Z,1.75
2023-02-15T09:14:20.575Z,1.74
2023-02-15T09:16:47.932Z,1.93
2023-02-15T09:19:15.070Z,2.26
2023-02-15T09:21:41.576Z,2.63
2023-02-15T09:24:12.301Z,3.04
2023-02-15T09:26:42.328Z,3.32
2023-02-15T09:29:10.286Z,3.23
2023-02-15T09:31:45.731Z,3.63
2023-02-15T09:34:13.832Z,3.97
2023-02-15T09:36:43.328Z,4.29
2023-02-15T09:39:27.103Z,4.61
2023-02-15T09:42:04.078Z,4.92
2023-02-15T09:44:30.479Z,4.67
2023-02-15T09:47:21.776Z,4.73
2023-02-15T09:50:15.506Z,5.13
2023-02-15T09:53:10.600Z,5.42
2023-02-15T09:55:55.066Z,5.57
2023-02-15T09:58:41.749Z,5.65
2023-02-15T10:01:35.461Z,5.78
2023-02-15T10:04:44.050Z,6.03
2023-02-15T10:07:30.599Z,6.25
2023-02-15T10:10:50.627Z,6.45
2023-02-15T10:13:37.052Z,5.84
2023-02-15T10:16:28.001Z,5.45
2023-02-15T10:19:06.592Z,5.44
2023-02-15T10:22:11.370Z,6.04
2023-02-15T10:25:35.151Z,6.46
2023-02-15T10:28:21.167Z,6.65
2023-02-15T10:30:53.050Z,6.55
2023-02-15T10:33:41.666Z,6.87
2023-02-15T10:36:34.090Z,7.08
2023-02-15T10:39:17.430Z,7.10
2023-02-15T10:41:55.278Z,7.40
2023-02-15T10:44:38.498Z,7.60
2023-02-15T10:47:23.414Z,7.87
2023-02-15T10:50:08.241Z,8.07
2023-02-15T10:52:56.739Z,7.50
2023-02-15T10:55:52.142Z,7.56
2023-02-15T10:58:32.662Z,7.85
2023-02-15T11:01:23.169Z,8.16
2023-02-15T11:03:55.318Z,8.24
2023-02-15T11:06:23.974Z,7.90
2023-02-15T11:08:58.949Z,8.22
2023-02-15T11:11:30.813Z,8.61
2023-02-15T11:14:03.429Z,8.94
2023-02-15T11:16:38.137Z,9.07
2023-02-15T11:19:31.630Z,9.20
2023-02-15T11:22:05.859Z,9.33
2023-02-15T11:24:41.873Z,9.22
2023-02-15T11:27:17.607Z,9.43
2023-02-15T11:30:06.009Z,9.49
2023-02-15T11:32:40.559Z,9.02
2023-02-15T11:35:32.953Z,9.06
2023-02-15T11:38:20.684Z,9.24
2023-02-15T11:40:50.617Z,9.81
2023-02-15T11:43:32.474Z,9.75
2023-02-15T11:45:59.312Z,10.32
2023-02-15T11:48:25.843Z,9.78
2023-02-15T11:50:52.504Z,9.55
2023-02-15T11:53:22.046Z,10.40
2023-02-15T11:55:50.666Z,9.74
2023-02-15T11:58:39.084Z,10.10
2023-02-15T12:01:26.041Z,10.38
2023-02-15T12:03:56.692Z,9.88
2023-02-15T12:06:38.466Z,9.73
2023-02-15T12:09:19.625Z,10.23
2023-02-15T12:11:47.062Z,10.60
2023-02-15T12:14:15.546Z,10.46
2023-02-15T12:16:51.363Z,10.47
2023-02-15T12:19:41.893Z,10.69
2023-02-15T12:22:21.921Z,10.61
2023-02-15T12:24:50.576Z,10.89
2023-02-15T12:27:23.255Z,11.47
2023-02-15T12:29:53.556Z,11.54
2023-02-15T12:32:27.997Z,11.86
2023-02-15T12:35:02.537Z,11.84
2023-02-15T12:37:32.453Z,12.13
2023-02-15T12:40:01.491Z,11.60
2023-02-15T12:42:41.282Z,11.17
2023-02-15T12:45:33.691Z,11.78
2023-02-15T12:48:18.659Z,11.81
2023-02-15T12:50:58.036Z,11.67
2023-02-15T12:53:35.022Z,11.72
2023-02-15T12:56:07.926Z,12.09
2023-02-15T12:58:38.347Z,12.37
2023-02-15T13:01:10.606Z,12.71
2023-02-15T13:03:57.238Z,12.88
2023-02-15T13:06:25.390Z,12.31
2023-02-15T13:08:54.663Z,12.36
2023-02-15T13:11:31.331Z,12.15
2023-02-15T13:14:01.280Z,12.35
2023-02-15T13:16:44.316Z,12.11
2023-02-15T13:19:19.733Z,12.09
2023-02-15T13:21:50.447Z,12.26
2023-02-15T13:24:29.023Z,12.04
2023-02-15T13:27:13.196Z,12.10
2023-02-15T13:29:45.865Z,12.21
2023-02-15T13:32:28.026Z,12.36
2023-02-15T13:34:58.758Z,12.54
2023-02-15T13:37:34.255Z,12.70
2023-02-15T13:40:05.155Z,12.57
2023-02-15T13:42:43.913Z,12.76
2023-02-15T13:45:38.016Z,12.38
2023-02-15T13:48:50.759Z,12.28
2023-02-15T13:51:26.352Z,12.29
2023-02-15T13:54:01.572Z,12.38
2023-02-15T13:56:42.832Z,12.48
2023-02-15T13:59:30.298Z,12.91
2023-02-15T14:02:10.058Z,13.31
2023-02-15T14:05:03.806Z,13.30
2023-02-15T14:08:07.880Z,13.54
2023-02-15T14:10:57.910Z,13.49
2023-02-15T14:13:40.349Z,13.51
2023-02-15T14:16:34.892Z,13.35
2023-02-15T14:19:34.048Z,13.27
2023-02-15T14:22:03.750Z,13.22
2023-02-15T14:24:51.671Z,13.59
2023-02-15T14:27:46.747Z,13.35
2023-02-15T14:30:23.693Z,13.07
2023-02-15T14:32:58.376Z,12.99
2023-02-15T14:35:28.843Z,13.02
2023-02-15T14:38:08.089Z,12.93
2023-02-15T14:40:56.211Z,12.97
2023-02-15T14:43:22.666Z,12.78
2023-02-15T14:46:34.673Z,12.74
2023-02-15T14:49:12.105Z,12.68
2023-02-15T14:51:41.422Z,12.59
2023-02-15T14:54:16.933Z,12.55
2023-02-15T14:56:47.155Z,12.61
2023-02-15T14:59:24.535Z,12.45
2023-02-15T15:01:59.823Z,12.56
2023-02-15T15:04:36.614Z,12.58
2023-02-15T15:07:08.771Z,12.42
2023-02-15T15:09:38.823Z,12.22
2023-02-15T15:12:33.963Z,12.14
2023-02-15T15:15:01.079Z,11.98
2023-02-15T15:17:36.589Z,11.94
2023-02-15T15:20:15.570Z,11.78
2023-02-15T15:22:44.085Z,11.61
2023-02-15T15:25:32.898Z,11.52
2023-02-15T15:27:59.411Z,11.42
2023-02-15T15:30:32.024Z,11.29
2023-02-15T15:33:01.511Z,11.10
2023-02-15T15:35:34.068Z,11.00
2023-02-15T15:38:55.149Z,10.82
2023-02-15T15:42:02.924Z,10.72
2023-02-15T15:45:03.836Z,10.53
2023-02-15T15:47:39.781Z,10.32
2023-02-15T15:50:15.242Z,10.22
2023-02-15T15:52:50.983Z,10.06
2023-02-15T15:55:20.961Z,9.99
2023-02-15T15:57:52.693Z,9.85
2023-02-15T16:00:36.005Z,9.66
2023-02-15T16:03:03.363Z,9.60
2023-02-15T16:05:36.897Z,9.43
2023-02-15T16:08:04.030Z,9.33
2023-02-15T16:10:31.670Z,9.20
2023-02-15T16:12:59.215Z,9.08
2023-02-15T16:15:46.219Z,8.86
2023-02-15T16:18:18.133Z,8.71
2023-02-15T16:20:59.761Z,8.62
2023-02-15T16:23:56.050Z,8.58
2023-02-15T16:26:53.699Z,8.45
2023-02-15T16:29:29.302Z,8.45
2023-02-15T16:32:24.817Z,8.27
2023-02-15T16:35:02.105Z,8.05
2023-02-15T16:37:34.217Z,7.87
2023-02-15T16:40:01.119Z,7.73
2023-02-15T16:42:28.895Z,7.58
2023-02-15T16:45:02.188Z,7.57
2023-02-15T16:47:37.128Z,7.46
2023-02-15T16:50:05.136Z,7.32
2023-02-15T16:52:31.899Z,7.20
2023-02-15T16:55:06.144Z,7.14
2023-02-15T16:57:38.037Z,6.98
2023-02-15T17:00:17.857Z,6.88
2023-02-15T17:02:59.521Z,6.77
2023-02-15T17:05:51.328Z,6.65
2023-02-15T17:08:27.571Z,6.51
2023-02-15T17:11:00.772Z,6.47
2023-02-15T17:13:30.735Z,6.36
2023-02-15T17:16:00.496Z,6.29
2023-02-15T17:18:30.912Z,6.19
2023-02-15T17:21:02.640Z,6.12
2023-02-15T17:23:33.956Z,6.00
2023-02-15T17:26:11.367Z,5.88
2023-02-15T17:28:38.991Z,5.77
2023-02-15T17:31:08.249Z,5.66
2023-02-15T17:33:34.745Z,5.70
2023-02-15T17:36:17.061Z,5.57
2023-02-15T17:38:58.704Z,5.44
2023-02-15T17:41:27.026Z,5.36
2023-02-15T17:43:53.612Z,5.29
2023-02-15T17:46:20.604Z,5.24
2023-02-15T17:48:49.374Z,5.19
2023-02-15T17:51:17.004Z,5.10
2023-02-15T17:53:44.177Z,4.99
2023-02-15T17:56:10.841Z,4.89
2023-02-15T17:58:37.989Z,4.78
2023-02-15T18:01:12.891Z,4.74
2023-02-15T18:03:53.296Z,4.63
2023-02-15T18:06:21.470Z,4.53
2023-02-15T18:08:48.185Z,4.46
2023-02-15T18:11:14.873Z,4.39
2023-02-15T18:13:41.266Z,4.36
2023-02-15T18:16:14.289Z,4.30
2023-02-15T18:18:41.348Z,4.27
2023-02-15T18:21:07.870Z,4.21
2023-02-15T18:23:34.344Z,4.14
2023-02-15T18:26:00.835Z,4.06
2023-02-15T18:28:28.720Z,3.97
2023-02-15T18:30:55.333Z,3.89
2023-02-15T18:33:44.167Z,3.79
2023-02-15T18:36:17.738Z,3.66
2023-02-15T18:38:44.173Z,3.59
2023-02-15T18:41:18.292Z,3.47
2023-02-15T18:43:45.435Z,3.40
2023-02-15T18:46:12.341Z,3.37
2023-02-15T18:48:40.548Z,3.31
2023-02-15T18:51:17.997Z,3.26
2023-02-15T18:53:45.381Z,3.19
2023-02-15T18:56:19.800Z,3.13
2023-02-15T18:58:47.156Z,3.10
2023-02-15T19:01:19.854Z,3.05
2023-02-15T19:03:51.304Z,2.98
2023-02-15T19:06:20.937Z,2.96
2023-02-15T19:08:49.308Z,2.88
2023-02-15T19:11:21.486Z,2.80
2023-02-15T19:13:47.886Z,2.75
2023-02-15T19:16:28.465Z,2.69
2023-02-15T19:18:54.912Z,2.64
2023-02-15T19:21:22.584Z,2.60
2023-02-15T19:24:03.551Z,2.40
2023-02-15T19:26:44.166Z,2.34
2023-02-15T19:29:14.992Z,2.24
2023-02-15T19:31:42.922Z,2.19
2023-02-15T19:34:18.330Z,2.13
2023-02-15T19:36:56.445Z,2.05
2023-02-15T19:39:29.117Z,2.01
2023-02-15T19:41:57.084Z,1.93
2023-02-15T19:44:26.905Z,1.92
2023-02-15T19:46:53.482Z,1.90
2023-02-15T19:49:20.108Z,1.85
2023-02-15T19:51:47.388Z,1.80
2023-02-15T19:54:33.360Z,1.75
2023-02-15T19:57:00.406Z,1.67
2023-02-15T19:59:31.975Z,1.65
2023-02-15T20:01:59.311Z,1.63
2023-02-15T20:04:27.682Z,1.58
2023-02-15T20:07:01.615Z,1.54
2023-02-15T20:09:35.455Z,1.50
2023-02-15T20:12:01.895Z,1.48
2023-02-15T20:14:28.334Z,1.36
2023-02-15T20:16:55.887Z,1.32
2023-02-15T20:19:22.311Z,1.31
2023-02-15T20:21:48.976Z,1.26
2023-02-15T20:24:21.241Z,1.17
2023-02-15T20:26:47.783Z,1.15
2023-02-15T20:29:16.791Z,1.14
2023-02-15T20:31:43.350Z,0.96
2023-02-15T20:34:10.881Z,0.91
2023-02-15T20:36:38.687Z,0.87
2023-02-15T20:39:14.178Z,0.89
2023-02-15T20:41:40.836Z,0.85
2023-02-15T20:44:27.367Z,0.80
2023-02-15T20:46:56.270Z,0.76
2023-02-15T20:49:26.508Z,0.74
2023-02-15T20:51:55.190Z,0.71
2023-02-15T20:54:24.452Z,0.69
2023-02-15T20:56:51.056Z,0.71
2023-02-15T20:59:26.657Z,0.67
2023-02-15T21:02:00.203Z,0.66
2023-02-15T21:04:30.491Z,0.63
2023-02-15T21:06:57.055Z,0.60
2023-02-15T21:09:23.438Z,0.60
2023-02-15T21:11:52.001Z,0.58
2023-02-15T21:14:23.880Z,0.61
2023-02-15T21:16:51.236Z,0.60
2023-02-15T21:19:20.632Z,0.58
2023-02-15T21:21:48.608Z,0.57
2023-02-15T21:24:29.176Z,0.52
2023-02-15T21:26:58.659Z,0.47
2023-02-15T21:29:27.661Z,0.42
2023-02-15T21:31:55.002Z,0.41
2023-02-15T21:34:21.530Z,0.40
2023-02-15T21:36:49.024Z,0.40
2023-02-15T21:39:19.427Z,0.41
2023-02-15T21:41:47.990Z,0.42
2023-02-15T21:44:17.339Z,0.36
2023-02-15T21:46:44.141Z,0.34
2023-02-15T21:49:10.632Z,0.31
2023-02-15T21:51:37.139Z,0.26
2023-02-15T21:54:04.392Z,0.24
2023-02-15T21:56:31.909Z,0.27
2023-02-15T21:58:58.305Z,0.22
2023-02-15T22:01:27.295Z,0.25
2023-02-15T22:03:55.445Z,0.23
2023-02-15T22:06:21.924Z,0.18
2023-02-15T22:08:48.369Z,0.23
2023-02-15T22:11:19.845Z,0.17
2023-02-15T22:13:47.699Z,0.16
2023-02-15T22:16:24.505Z,0.11
2023-02-15T22:18:51.067Z,0.19
2023-02-15T22:21:17.783Z,0.18
2023-02-15T22:23:44.226Z,0.12
2023-02-15T22:26:28.646Z,0.12
2023-02-15T22:28:56.938Z,0.12
2023-02-15T22:31:23.484Z,-0.01
2023-02-15T22:33:50.564Z,-0.06
2023-02-15T22:36:23.437Z,-0.12
2023-02-15T22:38:50.010Z,-0.10
2023-02-15T22:41:17.391Z,-0.08
2023-02-15T22:43:45.916Z,-0.10
2023-02-15T22:46:18.126Z,-0.17
2023-02-15T22:48:46.018Z,-0.28
2023-02-15T22:51:17.481Z,-0.33
2023-02-15T22:53:43.903Z,-0.35
2023-02-15T22:56:18.501Z,-0.41
2023-02-15T22:58:46.223Z,-0.45
2023-02-15T23:01:30.194Z,-0.47
2023-02-15T23:03:56.661Z,-0.49
2023-02-15T23:06:23.104Z,-0.48
2023-02-15T23:08:49.592Z,-0.48
2023-02-15T23:11:18.161Z,-0.50
2023-02-15T23:13:45.346Z,-0.51
2023-02-15T23:16:17.770Z,-0.56
2023-02-15T23:18:46.963Z,-0.63
2023-02-15T23:21:27.307Z,-0.71
2023-02-15T23:23:57.754Z,-0.74
2023-02-15T23:26:30.832Z,-0.85
2023-02-15T23:28:59.741Z,-0.87
2023-02-15T23:31:34.765Z,-0.89
2023-02-15T23:34:05.522Z,-0.95
2023-02-15T23:36:33.023Z,-1.01
2023-02-15T23:39:07.468Z,-1.04
2023-02-15T23:41:33.924Z,-1.07
2023-02-15T23:44:03.784Z,-1.12
2023-02-15T23:46:39.763Z,-1.13
2023-02-15T23:49:06.265Z,-1.11
2023-02-15T23:51:33.823Z,-1.12
2023-02-15T23:54:00.224Z,-1.19
2023-02-15T23:56:26.591Z,-1.18
2023-02-15T23:58:53.335Z,-1.21
